sensor_id;sensor_type;location;lat;lon;timestamp;pressure;altitude;pressure_sealevel;temperature;humidity
48636;BME280;34429;52.332;5.614;2022-11-06T00:02:18;101272.41;;;10.96;100.00
48636;BME280;34429;52.332;5.614;2022-11-06T00:04:46;101266.19;;;10.96;100.00
48636;BME280;34429;52.332;5.614;2022-11-06T00:07:15;101266.63;;;11.01;100.00
48636;BME280;34429;52.332;5.614;2022-11-06T00:09:41;101265.94;;;10.99;100.00
48636;BME280;34429;52.332;5.614;2022-11-06T00:12:11;101258.25;;;10.94;100.00
48636;BME280;34429;52.332;5.614;2022-11-06T00:14:40;101255.69;;;11.14;100.00
48636;BME280;34429;52.332;5.614;2022-11-06T00:17:08;101272.66;;;10.93;100.00
48636;BME280;34429;52.332;5.614;2022-11-06T00:19:36;101270.34;;;11.00;100.00
48636;BME280;34429;52.332;5.614;2022-11-06T00:22:04;101266.38;;;11.04;100.00
48636;BME280;34429;52.332;5.614;2022-11-06T00:24:33;101264.28;;;11.08;100.00
48636;BME280;34429;52.332;5.614;2022-11-06T00:27:01;101259.03;;;11.06;100.00
48636;BME280;34429;52.332;5.614;2022-11-06T00:29:32;101267.63;;;11.00;100.00
48636;BME280;34429;52.332;5.614;2022-11-06T00:32:00;101268.25;;;10.92;100.00
48636;BME280;34429;52.332;5.614;2022-11-06T00:34:29;101273.53;;;10.94;100.00
48636;BME280;34429;52.332;5.614;2022-11-06T00:37:00;101282.09;;;10.99;100.00
48636;BME280;34429;52.332;5.614;2022-11-06T00:39:29;101268.44;;;11.12;100.00
48636;BME280;34429;52.332;5.614;2022-11-06T00:41:58;101266.56;;;10.91;100.00
48636;BME280;34429;52.332;5.614;2022-11-06T00:44:26;101261.25;;;11.01;100.00
48636;BME280;34429;52.332;5.614;2022-11-06T00:46:57;101268.66;;;10.87;100.00
48636;BME280;34429;52.332;5.614;2022-11-06T00:49:27;101256.25;;;10.96;100.00
48636;BME280;34429;52.332;5.614;2022-11-06T00:51:55;101269.34;;;11.01;100.00
48636;BME280;34429;52.332;5.614;2022-11-06T00:54:23;101255.06;;;10.89;100.00
48636;BME280;34429;52.332;5.614;2022-11-06T00:56:51;101263.25;;;10.87;100.00
48636;BME280;34429;52.332;5.614;2022-11-06T00:59:20;101266.06;;;10.97;100.00
48636;BME280;34429;52.332;5.614;2022-11-06T01:01:48;101261.66;;;10.96;100.00
48636;BME280;34429;52.332;5.614;2022-11-06T01:04:20;101260.44;;;10.89;100.00
48636;BME280;34429;52.332;5.614;2022-11-06T01:06:50;101264.19;;;10.98;100.00
48636;BME280;34429;52.332;5.614;2022-11-06T01:09:22;101255.94;;;10.90;100.00
48636;BME280;34429;52.332;5.614;2022-11-06T01:11:52;101256.41;;;10.83;100.00
48636;BME280;34429;52.332;5.614;2022-11-06T01:14:22;101247.09;;;10.87;100.00
48636;BME280;34429;52.332;5.614;2022-11-06T01:16:50;101242.41;;;11.01;100.00
48636;BME280;34429;52.332;5.614;2022-11-06T01:19:22;101248.03;;;10.98;100.00
48636;BME280;34429;52.332;5.614;2022-11-06T01:21:51;101233.25;;;10.92;100.00
48636;BME280;34429;52.332;5.614;2022-11-06T01:24:21;101229.50;;;10.83;100.00
48636;BME280;34429;52.332;5.614;2022-11-06T01:26:50;101236.16;;;11.00;100.00
48636;BME280;34429;52.332;5.614;2022-11-06T01:29:19;101242.66;;;10.98;100.00
48636;BME280;34429;52.332;5.614;2022-11-06T01:31:47;101231.63;;;11.01;100.00
48636;BME280;34429;52.332;5.614;2022-11-06T01:34:17;101227.91;;;11.13;100.00
48636;BME280;34429;52.332;5.614;2022-11-06T01:36:48;101238.59;;;11.25;100.00
48636;BME280;34429;52.332;5.614;2022-11-06T01:39:16;101237.22;;;11.09;100.00
48636;BME280;34429;52.332;5.614;2022-11-06T01:41:46;101227.03;;;11.13;100.00
48636;BME280;34429;52.332;5.614;2022-11-06T01:47:19;101234.63;;;11.19;100.00
48636;BME280;34429;52.332;5.614;2022-11-06T01:49:48;101222.16;;;11.07;100.00
48636;BME280;34429;52.332;5.614;2022-11-06T01:52:21;101220.59;;;11.04;100.00
48636;BME280;34429;52.332;5.614;2022-11-06T01:54:53;101223.50;;;11.12;100.00
48636;BME280;34429;52.332;5.614;2022-11-06T01:57:24;101218.38;;;11.09;100.00
48636;BME280;34429;52.332;5.614;2022-11-06T01:59:53;101223.22;;;11.15;100.00
48636;BME280;34429;52.332;5.614;2022-11-06T02:02:22;101226.19;;;11.12;100.00
48636;BME280;34429;52.332;5.614;2022-11-06T02:04:51;101221.06;;;10.88;100.00
48636;BME280;34429;52.332;5.614;2022-11-06T02:07:22;101213.16;;;10.96;100.00
48636;BME280;34429;52.332;5.614;2022-11-06T02:09:50;101213.81;;;10.89;100.00
48636;BME280;34429;52.332;5.614;2022-11-06T02:12:29;101211.84;;;10.91;100.00
48636;BME280;34429;52.332;5.614;2022-11-06T02:15:05;101208.38;;;11.00;100.00
48636;BME280;34429;52.332;5.614;2022-11-06T02:17:51;101199.44;;;10.99;100.00
48636;BME280;34429;52.332;5.614;2022-11-06T02:20:29;101199.69;;;10.96;100.00
48636;BME280;34429;52.332;5.614;2022-11-06T02:23:23;101190.19;;;11.13;100.00
48636;BME280;34429;52.332;5.614;2022-11-06T02:26:01;101189.91;;;10.95;100.00
48636;BME280;34429;52.332;5.614;2022-11-06T02:28:38;101198.19;;;11.03;100.00
48636;BME280;34429;52.332;5.614;2022-11-06T02:31:11;101198.25;;;10.92;100.00
48636;BME280;34429;52.332;5.614;2022-11-06T02:33:44;101193.25;;;10.87;100.00
48636;BME280;34429;52.332;5.614;2022-11-06T02:36:19;101194.44;;;10.95;100.00
48636;BME280;34429;52.332;5.614;2022-11-06T02:38:54;101187.94;;;10.97;100.00
48636;BME280;34429;52.332;5.614;2022-11-06T02:41:28;101192.22;;;11.00;100.00
48636;BME280;34429;52.332;5.614;2022-11-06T02:44:05;101196.44;;;10.93;100.00
48636;BME280;34429;52.332;5.614;2022-11-06T02:46:36;101191.75;;;10.95;100.00
48636;BME280;34429;52.332;5.614;2022-11-06T02:49:08;101188.34;;;10.93;100.00
48636;BME280;34429;52.332;5.614;2022-11-06T02:51:43;101184.00;;;11.01;100.00
48636;BME280;34429;52.332;5.614;2022-11-06T02:54:18;101178.81;;;10.89;100.00
48636;BME280;34429;52.332;5.614;2022-11-06T02:56:50;101181.03;;;10.83;100.00
48636;BME280;34429;52.332;5.614;2022-11-06T02:59:24;101182.59;;;10.86;100.00
48636;BME280;34429;52.332;5.614;2022-11-06T03:01:58;101179.91;;;10.86;100.00
48636;BME280;34429;52.332;5.614;2022-11-06T03:04:32;101165.44;;;10.98;100.00
48636;BME280;34429;52.332;5.614;2022-11-06T03:07:05;101170.03;;;10.86;100.00
48636;BME280;34429;52.332;5.614;2022-11-06T03:09:35;101167.31;;;11.08;100.00
48636;BME280;34429;52.332;5.614;2022-11-06T03:12:19;101171.72;;;10.87;100.00
48636;BME280;34429;52.332;5.614;2022-11-06T03:14:56;101176.56;;;10.94;100.00
48636;BME280;34429;52.332;5.614;2022-11-06T03:17:34;101182.22;;;10.91;100.00
48636;BME280;34429;52.332;5.614;2022-11-06T03:20:15;101174.47;;;10.76;100.00
48636;BME280;34429;52.332;5.614;2022-11-06T03:22:51;101164.81;;;10.95;100.00
48636;BME280;34429;52.332;5.614;2022-11-06T03:25:24;101170.31;;;10.72;100.00
48636;BME280;34429;52.332;5.614;2022-11-06T03:28:00;101168.88;;;10.68;100.00
48636;BME280;34429;52.332;5.614;2022-11-06T03:30:37;101175.91;;;10.80;100.00
48636;BME280;34429;52.332;5.614;2022-11-06T03:33:10;101176.16;;;10.77;100.00
48636;BME280;34429;52.332;5.614;2022-11-06T03:35:43;101195.19;;;10.97;100.00
48636;BME280;34429;52.332;5.614;2022-11-06T03:38:17;101186.22;;;10.75;100.00
48636;BME280;34429;52.332;5.614;2022-11-06T03:40:50;101186.03;;;10.88;100.00
48636;BME280;34429;52.332;5.614;2022-11-06T03:43:22;101179.88;;;10.97;100.00
48636;BME280;34429;52.332;5.614;2022-11-06T03:45:57;101182.47;;;10.87;100.00
48636;BME280;34429;52.332;5.614;2022-11-06T03:48:30;101165.56;;;10.97;100.00
48636;BME280;34429;52.332;5.614;2022-11-06T03:51:03;101160.00;;;10.77;100.00
48636;BME280;34429;52.332;5.614;2022-11-06T03:53:37;101154.81;;;11.07;100.00
48636;BME280;34429;52.332;5.614;2022-11-06T03:56:13;101148.25;;;10.99;100.00
48636;BME280;34429;52.332;5.614;2022-11-06T03:58:48;101148.34;;;10.88;100.00
48636;BME280;34429;52.332;5.614;2022-11-06T04:01:24;101153.06;;;10.96;100.00
48636;BME280;34429;52.332;5.614;2022-11-06T04:03:58;101143.28;;;10.95;100.00
48636;BME280;34429;52.332;5.614;2022-11-06T04:06:31;101146.22;;;10.92;100.00
48636;BME280;34429;52.332;5.614;2022-11-06T04:09:02;101146.94;;;10.94;100.00
48636;BME280;34429;52.332;5.614;2022-11-06T04:11:44;101146.72;;;10.97;100.00
48636;BME280;34429;52.332;5.614;2022-11-06T04:14:28;101138.69;;;10.85;100.00
48636;BME280;34429;52.332;5.614;2022-11-06T04:17:03;101152.47;;;10.92;100.00
48636;BME280;34429;52.332;5.614;2022-11-06T04:19:33;101142.09;;;10.87;100.00
48636;BME280;34429;52.332;5.614;2022-11-06T04:22:17;101148.66;;;10.95;100.00
48636;BME280;34429;52.332;5.614;2022-11-06T04:24:58;101139.34;;;10.99;100.00
48636;BME280;34429;52.332;5.614;2022-11-06T04:27:54;101140.53;;;11.06;100.00
48636;BME280;34429;52.332;5.614;2022-11-06T04:30:29;101136.59;;;11.10;100.00
48636;BME280;34429;52.332;5.614;2022-11-06T04:33:06;101129.78;;;11.16;100.00
48636;BME280;34429;52.332;5.614;2022-11-06T04:35:45;101136.09;;;11.05;100.00
48636;BME280;34429;52.332;5.614;2022-11-06T04:38:24;101126.78;;;11.09;100.00
48636;BME280;34429;52.332;5.614;2022-11-06T04:41:00;101118.63;;;10.99;100.00
48636;BME280;34429;52.332;5.614;2022-11-06T04:43:38;101118.00;;;11.07;100.00
48636;BME280;34429;52.332;5.614;2022-11-06T04:46:10;101128.03;;;11.05;100.00
48636;BME280;34429;52.332;5.614;2022-11-06T04:48:42;101117.00;;;10.87;100.00
48636;BME280;34429;52.332;5.614;2022-11-06T04:51:13;101120.91;;;11.04;100.00
48636;BME280;34429;52.332;5.614;2022-11-06T04:53:43;101106.81;;;10.91;100.00
48636;BME280;34429;52.332;5.614;2022-11-06T04:56:12;101106.88;;;11.00;100.00
48636;BME280;34429;52.332;5.614;2022-11-06T04:58:40;101106.31;;;10.97;100.00
48636;BME280;34429;52.332;5.614;2022-11-06T05:01:09;101097.50;;;10.95;100.00
48636;BME280;34429;52.332;5.614;2022-11-06T05:03:37;101095.03;;;11.13;100.00
48636;BME280;34429;52.332;5.614;2022-11-06T05:06:08;101096.88;;;11.12;100.00
48636;BME280;34429;52.332;5.614;2022-11-06T05:08:37;101100.91;;;11.28;100.00
48636;BME280;34429;52.332;5.614;2022-11-06T05:11:05;101105.50;;;11.06;100.00
48636;BME280;34429;52.332;5.614;2022-11-06T05:13:34;101099.72;;;11.11;100.00
48636;BME280;34429;52.332;5.614;2022-11-06T05:16:03;101101.38;;;11.02;100.00
48636;BME280;34429;52.332;5.614;2022-11-06T05:18:32;101103.44;;;11.19;100.00
48636;BME280;34429;52.332;5.614;2022-11-06T05:21:01;101110.47;;;11.11;100.00
48636;BME280;34429;52.332;5.614;2022-11-06T05:23:44;101091.06;;;11.07;100.00
48636;BME280;34429;52.332;5.614;2022-11-06T05:26:13;101084.59;;;11.19;100.00
48636;BME280;34429;52.332;5.614;2022-11-06T05:28:41;101085.16;;;11.23;100.00
48636;BME280;34429;52.332;5.614;2022-11-06T05:31:09;101085.22;;;11.33;100.00
48636;BME280;34429;52.332;5.614;2022-11-06T05:33:38;101080.09;;;11.30;100.00
48636;BME280;34429;52.332;5.614;2022-11-06T05:36:07;101085.41;;;11.10;100.00
48636;BME280;34429;52.332;5.614;2022-11-06T05:38:35;101072.97;;;11.19;100.00
48636;BME280;34429;52.332;5.614;2022-11-06T05:41:06;101074.22;;;11.15;100.00
48636;BME280;34429;52.332;5.614;2022-11-06T05:43:34;101072.06;;;11.09;100.00
48636;BME280;34429;52.332;5.614;2022-11-06T05:46:03;101084.59;;;11.19;100.00
48636;BME280;34429;52.332;5.614;2022-11-06T05:48:32;101061.94;;;11.32;100.00
48636;BME280;34429;52.332;5.614;2022-11-06T05:51:00;101049.97;;;11.15;100.00
48636;BME280;34429;52.332;5.614;2022-11-06T05:53:29;101059.34;;;11.20;100.00
48636;BME280;34429;52.332;5.614;2022-11-06T05:55:58;101052.41;;;11.28;100.00
48636;BME280;34429;52.332;5.614;2022-11-06T05:58:29;101049.72;;;11.28;100.00
48636;BME280;34429;52.332;5.614;2022-11-06T06:00:58;101047.41;;;11.13;100.00
48636;BME280;34429;52.332;5.614;2022-11-06T06:03:26;101050.50;;;11.09;100.00
48636;BME280;34429;52.332;5.614;2022-11-06T06:05:55;101053.41;;;11.27;100.00
48636;BME280;34429;52.332;5.614;2022-11-06T06:08:23;101048.13;;;11.15;100.00
48636;BME280;34429;52.332;5.614;2022-11-06T06:10:51;101045.16;;;11.18;100.00
48636;BME280;34429;52.332;5.614;2022-11-06T06:13:20;101051.75;;;11.35;100.00
48636;BME280;34429;52.332;5.614;2022-11-06T06:15:50;101045.63;;;11.24;100.00
48636;BME280;34429;52.332;5.614;2022-11-06T06:18:19;101033.22;;;11.11;100.00
48636;BME280;34429;52.332;5.614;2022-11-06T06:20:47;101035.50;;;11.16;100.00
48636;BME280;34429;52.332;5.614;2022-11-06T06:23:15;101023.19;;;11.23;100.00
48636;BME280;34429;52.332;5.614;2022-11-06T06:25:44;101029.72;;;11.30;100.00
48636;BME280;34429;52.332;5.614;2022-11-06T06:28:12;101021.19;;;11.15;100.00
48636;BME280;34429;52.332;5.614;2022-11-06T06:30:40;101010.94;;;11.09;100.00
48636;BME280;34429;52.332;5.614;2022-11-06T06:33:11;100998.75;;;11.05;100.00
48636;BME280;34429;52.332;5.614;2022-11-06T06:35:39;101011.94;;;11.08;100.00
48636;BME280;34429;52.332;5.614;2022-11-06T06:38:08;101008.69;;;10.83;100.00
48636;BME280;34429;52.332;5.614;2022-11-06T06:40:36;101019.22;;;10.86;100.00
48636;BME280;34429;52.332;5.614;2022-11-06T06:43:04;101022.16;;;10.83;100.00
48636;BME280;34429;52.332;5.614;2022-11-06T06:45:33;101027.81;;;10.80;100.00
48636;BME280;34429;52.332;5.614;2022-11-06T06:48:02;101027.38;;;10.75;100.00
48636;BME280;34429;52.332;5.614;2022-11-06T06:50:33;101024.84;;;10.83;100.00
48636;BME280;34429;52.332;5.614;2022-11-06T06:53:02;101023.38;;;10.69;100.00
48636;BME280;34429;52.332;5.614;2022-11-06T06:55:30;101013.28;;;10.62;100.00
48636;BME280;34429;52.332;5.614;2022-11-06T06:58:00;101029.44;;;10.62;100.00
48636;BME280;34429;52.332;5.614;2022-11-06T07:00:28;101023.94;;;10.73;100.00
48636;BME280;34429;52.332;5.614;2022-11-06T07:02:56;101025.22;;;10.69;100.00
48636;BME280;34429;52.332;5.614;2022-11-06T07:05:24;101032.38;;;10.59;100.00
48636;BME280;34429;52.332;5.614;2022-11-06T07:07:56;101033.22;;;10.59;100.00
48636;BME280;34429;52.332;5.614;2022-11-06T07:10:24;101027.28;;;10.56;100.00
48636;BME280;34429;52.332;5.614;2022-11-06T07:12:52;101025.09;;;10.71;100.00
48636;BME280;34429;52.332;5.614;2022-11-06T07:15:21;101013.31;;;10.72;100.00
48636;BME280;34429;52.332;5.614;2022-11-06T07:17:49;100993.34;;;10.74;100.00
48636;BME280;34429;52.332;5.614;2022-11-06T07:20:17;101006.75;;;10.85;100.00
48636;BME280;34429;52.332;5.614;2022-11-06T07:22:46;101004.47;;;10.91;100.00
48636;BME280;34429;52.332;5.614;2022-11-06T07:25:16;101001.34;;;10.85;100.00
48636;BME280;34429;52.332;5.614;2022-11-06T07:27:45;101000.09;;;10.90;100.00
48636;BME280;34429;52.332;5.614;2022-11-06T07:30:13;101018.41;;;10.96;100.00
48636;BME280;34429;52.332;5.614;2022-11-06T07:32:41;101011.84;;;10.89;100.00
48636;BME280;34429;52.332;5.614;2022-11-06T07:35:10;101001.84;;;11.00;100.00
48636;BME280;34429;52.332;5.614;2022-11-06T07:37:38;101000.03;;;11.11;100.00
48636;BME280;34429;52.332;5.614;2022-11-06T07:40:09;100999.28;;;10.99;100.00
48636;BME280;34429;52.332;5.614;2022-11-06T07:42:41;100993.97;;;10.87;100.00
48636;BME280;34429;52.332;5.614;2022-11-06T07:45:10;100994.81;;;10.78;100.00
48636;BME280;34429;52.332;5.614;2022-11-06T07:47:38;100994.31;;;10.94;100.00
48636;BME280;34429;52.332;5.614;2022-11-06T07:50:07;100982.44;;;10.97;100.00
48636;BME280;34429;52.332;5.614;2022-11-06T07:52:35;100993.72;;;10.91;100.00
48636;BME280;34429;52.332;5.614;2022-11-06T07:55:04;100999.56;;;10.96;100.00
48636;BME280;34429;52.332;5.614;2022-11-06T07:57:35;100992.53;;;10.83;100.00
48636;BME280;34429;52.332;5.614;2022-11-06T08:00:07;100996.66;;;11.09;100.00
48636;BME280;34429;52.332;5.614;2022-11-06T08:02:36;100997.97;;;10.93;100.00
48636;BME280;34429;52.332;5.614;2022-11-06T08:05:04;100993.81;;;11.10;100.00
48636;BME280;34429;52.332;5.614;2022-11-06T08:07:33;100995.81;;;11.18;100.00
48636;BME280;34429;52.332;5.614;2022-11-06T08:10:01;100991.50;;;11.05;100.00
48636;BME280;34429;52.332;5.614;2022-11-06T08:12:30;100992.59;;;10.93;100.00
48636;BME280;34429;52.332;5.614;2022-11-06T08:14:58;100995.69;;;11.19;100.00
48636;BME280;34429;52.332;5.614;2022-11-06T08:17:29;100990.06;;;11.32;100.00
48636;BME280;34429;52.332;5.614;2022-11-06T08:19:58;100988.34;;;11.31;100.00
48636;BME280;34429;52.332;5.614;2022-11-06T08:22:26;100991.31;;;11.28;100.00
48636;BME280;34429;52.332;5.614;2022-11-06T08:24:54;100985.88;;;11.18;100.00
48636;BME280;34429;52.332;5.614;2022-11-06T08:27:23;100977.72;;;11.39;100.00
48636;BME280;34429;52.332;5.614;2022-11-06T08:29:51;100970.31;;;11.32;100.00
48636;BME280;34429;52.332;5.614;2022-11-06T08:32:19;100980.59;;;11.57;100.00
48636;BME280;34429;52.332;5.614;2022-11-06T08:34:50;100973.63;;;11.55;100.00
48636;BME280;34429;52.332;5.614;2022-11-06T08:37:19;100974.63;;;11.64;100.00
48636;BME280;34429;52.332;5.614;2022-11-06T08:39:47;100977.50;;;11.72;100.00
48636;BME280;34429;52.332;5.614;2022-11-06T08:42:15;100967.00;;;11.88;100.00
48636;BME280;34429;52.332;5.614;2022-11-06T08:44:44;100959.19;;;11.95;100.00
48636;BME280;34429;52.332;5.614;2022-11-06T08:47:12;100962.19;;;12.02;100.00
48636;BME280;34429;52.332;5.614;2022-11-06T08:49:40;100941.34;;;11.94;100.00
48636;BME280;34429;52.332;5.614;2022-11-06T08:52:11;100932.91;;;12.26;100.00
48636;BME280;34429;52.332;5.614;2022-11-06T08:54:40;100944.09;;;12.41;100.00
48636;BME280;34429;52.332;5.614;2022-11-06T08:57:08;100934.56;;;12.47;100.00
48636;BME280;34429;52.332;5.614;2022-11-06T08:59:36;100938.59;;;12.71;100.00
48636;BME280;34429;52.332;5.614;2022-11-06T09:02:05;100928.59;;;12.81;100.00
48636;BME280;34429;52.332;5.614;2022-11-06T09:04:33;100921.78;;;12.77;100.00
48636;BME280;34429;52.332;5.614;2022-11-06T09:07:02;100925.41;;;12.58;100.00
48636;BME280;34429;52.332;5.614;2022-11-06T09:09:32;100914.66;;;12.48;100.00
48636;BME280;34429;52.332;5.614;2022-11-06T09:12:01;100902.16;;;12.47;100.00
48636;BME280;34429;52.332;5.614;2022-11-06T09:14:29;100906.38;;;12.59;100.00
48636;BME280;34429;52.332;5.614;2022-11-06T09:16:58;100911.56;;;12.43;100.00
48636;BME280;34429;52.332;5.614;2022-11-06T09:19:26;100901.66;;;12.61;100.00
48636;BME280;34429;52.332;5.614;2022-11-06T09:21:54;100896.94;;;12.36;100.00
48636;BME280;34429;52.332;5.614;2022-11-06T09:24:23;100895.34;;;12.43;100.00
48636;BME280;34429;52.332;5.614;2022-11-06T09:26:54;100903.31;;;12.44;100.00
48636;BME280;34429;52.332;5.614;2022-11-06T09:29:22;100887.94;;;12.45;100.00
48636;BME280;34429;52.332;5.614;2022-11-06T09:31:51;100892.72;;;12.61;100.00
48636;BME280;34429;52.332;5.614;2022-11-06T09:34:19;100897.19;;;12.80;100.00
48636;BME280;34429;52.332;5.614;2022-11-06T09:36:47;100897.44;;;12.87;100.00
48636;BME280;34429;52.332;5.614;2022-11-06T09:39:16;100886.88;;;12.93;100.00
48636;BME280;34429;52.332;5.614;2022-11-06T09:41:53;100889.13;;;13.44;100.00
48636;BME280;34429;52.332;5.614;2022-11-06T09:44:32;100882.19;;;13.59;100.00
48636;BME280;34429;52.332;5.614;2022-11-06T09:47:05;100880.94;;;13.72;100.00
48636;BME280;34429;52.332;5.614;2022-11-06T09:49:40;100875.91;;;13.59;100.00
48636;BME280;34429;52.332;5.614;2022-11-06T09:52:12;100883.25;;;13.66;100.00
48636;BME280;34429;52.332;5.614;2022-11-06T09:54:46;100883.41;;;13.47;100.00
48636;BME280;34429;52.332;5.614;2022-11-06T09:57:20;100885.41;;;13.63;100.00
48636;BME280;34429;52.332;5.614;2022-11-06T09:59:50;100881.47;;;13.39;100.00
48636;BME280;34429;52.332;5.614;2022-11-06T10:02:25;100870.13;;;13.36;100.00
48636;BME280;34429;52.332;5.614;2022-11-06T10:04:59;100881.09;;;13.34;100.00
48636;BME280;34429;52.332;5.614;2022-11-06T10:07:34;100884.19;;;13.39;100.00
48636;BME280;34429;52.332;5.614;2022-11-06T10:10:04;100872.75;;;13.45;100.00
48636;BME280;34429;52.332;5.614;2022-11-06T10:12:42;100876.72;;;13.23;100.00
48636;BME280;34429;52.332;5.614;2022-11-06T10:15:21;100869.63;;;13.22;100.00
48636;BME280;34429;52.332;5.614;2022-11-06T10:17:57;100879.28;;;13.25;100.00
48636;BME280;34429;52.332;5.614;2022-11-06T10:20:30;100874.59;;;13.27;100.00
48636;BME280;34429;52.332;5.614;2022-11-06T10:23:04;100877.97;;;13.11;100.00
48636;BME280;34429;52.332;5.614;2022-11-06T10:25:44;100871.94;;;13.17;100.00
48636;BME280;34429;52.332;5.614;2022-11-06T10:28:24;100863.94;;;13.25;100.00
48636;BME280;34429;52.332;5.614;2022-11-06T10:31:03;100857.44;;;13.54;100.00
48636;BME280;34429;52.332;5.614;2022-11-06T10:33:45;100846.25;;;13.67;100.00
48636;BME280;34429;52.332;5.614;2022-11-06T10:36:19;100837.53;;;13.55;100.00
48636;BME280;34429;52.332;5.614;2022-11-06T10:38:50;100833.81;;;13.56;100.00
48636;BME280;34429;52.332;5.614;2022-11-06T10:41:23;100833.19;;;13.62;100.00
48636;BME280;34429;52.332;5.614;2022-11-06T10:43:58;100829.09;;;13.58;100.00
48636;BME280;34429;52.332;5.614;2022-11-06T10:46:34;100828.09;;;13.59;100.00
48636;BME280;34429;52.332;5.614;2022-11-06T10:49:09;100826.88;;;13.36;100.00
48636;BME280;34429;52.332;5.614;2022-11-06T10:51:57;100828.38;;;13.20;100.00
48636;BME280;34429;52.332;5.614;2022-11-06T10:54:38;100829.25;;;13.21;100.00
48636;BME280;34429;52.332;5.614;2022-11-06T10:57:27;100828.00;;;13.15;100.00
48636;BME280;34429;52.332;5.614;2022-11-06T11:00:04;100831.03;;;13.12;100.00
48636;BME280;34429;52.332;5.614;2022-11-06T11:02:34;100816.63;;;12.93;100.00
48636;BME280;34429;52.332;5.614;2022-11-06T11:05:10;100824.06;;;13.09;100.00
48636;BME280;34429;52.332;5.614;2022-11-06T11:07:40;100819.50;;;13.10;100.00
48636;BME280;34429;52.332;5.614;2022-11-06T11:10:26;100810.41;;;12.93;100.00
48636;BME280;34429;52.332;5.614;2022-11-06T11:12:57;100802.66;;;13.16;100.00
48636;BME280;34429;52.332;5.614;2022-11-06T11:15:30;100796.63;;;12.86;100.00
48636;BME280;34429;52.332;5.614;2022-11-06T11:18:17;100790.66;;;13.10;100.00
48636;BME280;34429;52.332;5.614;2022-11-06T11:20:46;100792.88;;;13.15;100.00
48636;BME280;34429;52.332;5.614;2022-11-06T11:23:16;100792.19;;;13.31;100.00
48636;BME280;34429;52.332;5.614;2022-11-06T11:25:47;100780.38;;;13.14;100.00
48636;BME280;34429;52.332;5.614;2022-11-06T11:28:27;100775.72;;;13.24;100.00
48636;BME280;34429;52.332;5.614;2022-11-06T11:31:04;100776.88;;;13.22;100.00
48636;BME280;34429;52.332;5.614;2022-11-06T11:33:34;100767.47;;;13.26;100.00
48636;BME280;34429;52.332;5.614;2022-11-06T11:36:04;100756.50;;;13.27;100.00
48636;BME280;34429;52.332;5.614;2022-11-06T11:38:34;100755.81;;;13.43;100.00
48636;BME280;34429;52.332;5.614;2022-11-06T11:41:07;100752.47;;;13.31;100.00
48636;BME280;34429;52.332;5.614;2022-11-06T11:43:38;100754.50;;;13.29;100.00
48636;BME280;34429;52.332;5.614;2022-11-06T11:46:18;100737.63;;;13.54;100.00
48636;BME280;34429;52.332;5.614;2022-11-06T11:48:48;100741.13;;;13.46;100.00
48636;BME280;34429;52.332;5.614;2022-11-06T11:51:29;100733.22;;;13.53;100.00
48636;BME280;34429;52.332;5.614;2022-11-06T11:54:14;100727.66;;;13.54;100.00
48636;BME280;34429;52.332;5.614;2022-11-06T11:56:47;100724.38;;;13.69;100.00
48636;BME280;34429;52.332;5.614;2022-11-06T11:59:19;100716.34;;;13.85;100.00
48636;BME280;34429;52.332;5.614;2022-11-06T12:01:51;100714.84;;;13.91;100.00
48636;BME280;34429;52.332;5.614;2022-11-06T12:04:23;100713.28;;;13.80;100.00
48636;BME280;34429;52.332;5.614;2022-11-06T12:06:57;100718.09;;;13.94;100.00
48636;BME280;34429;52.332;5.614;2022-11-06T12:09:27;100711.81;;;13.86;100.00
48636;BME280;34429;52.332;5.614;2022-11-06T12:11:58;100707.97;;;13.70;100.00
48636;BME280;34429;52.332;5.614;2022-11-06T12:14:30;100706.88;;;13.81;100.00
48636;BME280;34429;52.332;5.614;2022-11-06T12:17:10;100698.38;;;13.76;100.00
48636;BME280;34429;52.332;5.614;2022-11-06T12:22:55;100698.50;;;13.66;100.00
48636;BME280;34429;52.332;5.614;2022-11-06T12:25:29;100687.66;;;13.66;100.00
48636;BME280;34429;52.332;5.614;2022-11-06T12:28:01;100685.84;;;13.66;100.00
48636;BME280;34429;52.332;5.614;2022-11-06T12:30:31;100676.59;;;13.77;100.00
48636;BME280;34429;52.332;5.614;2022-11-06T12:33:09;100680.78;;;13.72;100.00
48636;BME280;34429;52.332;5.614;2022-11-06T12:35:41;100673.97;;;13.67;100.00
48636;BME280;34429;52.332;5.614;2022-11-06T12:38:17;100665.94;;;13.49;100.00
48636;BME280;34429;52.332;5.614;2022-11-06T12:40:54;100658.41;;;13.35;100.00
48636;BME280;34429;52.332;5.614;2022-11-06T12:43:28;100652.25;;;13.51;100.00
48636;BME280;34429;52.332;5.614;2022-11-06T12:52:17;100644.75;;;13.37;100.00
48636;BME280;34429;52.332;5.614;2022-11-06T12:54:58;100639.94;;;13.30;100.00
48636;BME280;34429;52.332;5.614;2022-11-06T12:57:39;100636.03;;;13.51;100.00
48636;BME280;34429;52.332;5.614;2022-11-06T13:00:10;100633.41;;;13.59;100.00
48636;BME280;34429;52.332;5.614;2022-11-06T13:02:53;100635.41;;;13.57;100.00
48636;BME280;34429;52.332;5.614;2022-11-06T13:05:29;100638.06;;;13.49;100.00
48636;BME280;34429;52.332;5.614;2022-11-06T13:08:19;100624.72;;;13.47;100.00
48636;BME280;34429;52.332;5.614;2022-11-06T13:11:06;100635.00;;;13.44;100.00
48636;BME280;34429;52.332;5.614;2022-11-06T13:13:46;100630.22;;;13.38;100.00
48636;BME280;34429;52.332;5.614;2022-11-06T13:16:26;100629.91;;;13.41;100.00
48636;BME280;34429;52.332;5.614;2022-11-06T13:19:03;100636.88;;;13.25;100.00